Time;durP1;ratioP1;P1;durP2;ratioP2;P2;SDS_P1;SDS_P2;PMS_P1;PMS_P2;Temp;Humidity;BMP_temperature;BMP_pressure;BME280_temperature;BME280_humidity;BME280_pressure;Samples;Min_cycle;Max_cycle;Signal;HPM_P1;HPM_P2
2021/11/15 00:02:00;;;;;;;7.25;5.15;;;12.50;99.90;;;;;;5072154;28;20353;-73
2021/11/15 00:04:26;;;;;;;7.82;5.93;;;12.50;99.90;;;;;;5080131;28;20480;-73
2021/11/15 00:06:52;;;;;;;9.18;5.57;;;12.50;99.90;;;;;;5084226;28;20043;-73
2021/11/15 00:09:18;;;;;;;10.30;6.05;;;12.60;99.90;;;;;;5075430;28;20020;-73
2021/11/15 00:11:43;;;;;;;7.40;6.20;;;12.60;99.90;;;;;;5086063;28;20379;-74
2021/11/15 00:14:09;;;;;;;9.73;6.32;;;12.50;99.90;;;;;;5092214;28;20099;-73
2021/11/15 00:16:35;;;;;;;8.48;6.07;;;12.40;99.90;;;;;;5091763;28;20036;-73
2021/11/15 00:19:02;;;;;;;9.55;6.38;;;12.50;99.90;;;;;;5076235;28;20388;-75
2021/11/15 00:21:28;;;;;;;7.72;5.40;;;12.50;99.90;;;;;;5071446;28;20025;-73
2021/11/15 00:23:54;;;;;;;11.88;6.35;;;12.50;99.90;;;;;;5071752;28;20020;-73
2021/11/15 00:26:20;;;;;;;8.15;5.85;;;12.50;99.90;;;;;;5085526;28;20530;-74
2021/11/15 00:28:46;;;;;;;9.70;6.47;;;12.40;99.90;;;;;;5072238;28;20029;-74
2021/11/15 00:31:12;;;;;;;11.25;7.55;;;12.40;99.90;;;;;;5072166;28;20370;-74
2021/11/15 00:33:38;;;;;;;9.38;6.70;;;12.40;99.90;;;;;;5075984;28;20070;-73
2021/11/15 00:36:04;;;;;;;9.27;6.75;;;12.50;99.90;;;;;;5094471;28;20052;-73
2021/11/15 00:38:29;;;;;;;9.20;6.88;;;12.50;99.90;;;;;;5096247;28;20426;-74
2021/11/15 00:40:55;;;;;;;10.70;7.07;;;12.60;99.90;;;;;;5096120;28;20024;-74
2021/11/15 00:43:21;;;;;;;13.80;8.48;;;12.60;99.90;;;;;;5095909;28;20016;-74
2021/11/15 00:45:47;;;;;;;12.00;7.75;;;12.60;99.90;;;;;;5068201;28;20040;-76
2021/11/15 00:48:13;;;;;;;13.10;8.02;;;12.60;99.90;;;;;;5085786;28;20465;-74
2021/11/15 00:50:39;;;;;;;13.95;8.63;;;12.60;99.90;;;;;;5057739;28;20035;-74
2021/11/15 00:53:05;;;;;;;14.77;8.75;;;12.60;99.90;;;;;;5089104;28;20410;-74
2021/11/15 00:55:32;;;;;;;13.93;8.65;;;12.50;99.90;;;;;;5089060;28;20028;-74
2021/11/15 00:57:59;;;;;;;16.25;9.57;;;12.50;99.90;;;;;;5075163;28;20055;-74
2021/11/15 01:00:27;;;;;;;19.10;9.90;;;12.40;99.90;;;;;;5075468;28;20376;-73
2021/11/15 01:02:55;;;;;;;16.02;8.75;;;12.40;99.90;;;;;;5075153;28;20034;-73
2021/11/15 01:05:22;;;;;;;14.88;9.00;;;12.40;99.90;;;;;;5075260;28;20013;-72
2021/11/15 01:07:48;;;;;;;14.50;9.00;;;12.30;99.90;;;;;;5075680;28;20032;-73
2021/11/15 01:10:17;;;;;;;15.45;9.77;;;12.30;99.90;;;;;;5087540;28;20036;-74
2021/11/15 01:12:43;;;;;;;16.05;10.02;;;12.20;99.90;;;;;;5079736;28;20020;-73
2021/11/15 01:15:14;;;;;;;14.00;9.85;;;12.20;99.90;;;;;;5077266;28;20545;-73
2021/11/15 01:17:40;;;;;;;15.80;9.70;;;12.10;99.90;;;;;;5095575;28;20024;-73
2021/11/15 01:20:08;;;;;;;20.45;9.93;;;12.10;99.90;;;;;;5090550;28;20100;-73
2021/11/15 01:22:34;;;;;;;21.75;11.00;;;12.10;99.90;;;;;;5075244;28;20025;-74
2021/11/15 01:25:00;;;;;;;15.57;10.18;;;12.10;99.90;;;;;;5074920;28;20090;-73
2021/11/15 01:27:25;;;;;;;14.77;9.90;;;12.10;99.90;;;;;;5074661;28;20032;-73
2021/11/15 01:29:52;;;;;;;18.00;10.23;;;12.10;99.90;;;;;;5074694;28;20082;-75
2021/11/15 01:32:18;;;;;;;16.95;10.88;;;12.10;99.90;;;;;;5074881;28;20017;-74
2021/11/15 01:34:44;;;;;;;17.98;10.85;;;12.00;99.90;;;;;;5074854;28;20494;-73
2021/11/15 01:37:11;;;;;;;17.92;11.32;;;12.00;99.90;;;;;;5074983;28;20090;-73
2021/11/15 01:39:36;;;;;;;18.27;11.38;;;12.00;99.90;;;;;;5074472;28;20103;-74
2021/11/15 01:42:03;;;;;;;15.48;10.35;;;12.00;99.90;;;;;;5074245;28;20147;-75
2021/11/15 01:44:30;;;;;;;16.85;10.43;;;12.00;99.90;;;;;;5074565;28;20074;-73
2021/11/15 01:46:56;;;;;;;19.67;10.55;;;12.00;99.90;;;;;;5073321;28;20116;-72
2021/11/15 01:49:22;;;;;;;17.27;10.80;;;12.00;99.90;;;;;;5074261;28;20048;-74
2021/11/15 01:51:48;;;;;;;18.63;10.73;;;12.00;99.90;;;;;;5074291;28;20054;-72
2021/11/15 01:54:15;;;;;;;20.00;11.18;;;12.00;99.90;;;;;;5074728;28;20025;-74
2021/11/15 01:56:41;;;;;;;20.30;11.68;;;12.00;99.90;;;;;;5074006;28;20028;-72
2021/11/15 01:59:07;;;;;;;20.83;12.75;;;12.00;99.90;;;;;;5074062;28;20032;-74
2021/11/15 02:01:33;;;;;;;17.90;11.55;;;12.20;99.90;;;;;;5074188;28;20099;-72
2021/11/15 02:03:59;;;;;;;18.73;10.85;;;12.20;99.90;;;;;;5074119;28;20020;-74
2021/11/15 02:06:26;;;;;;;20.08;11.35;;;12.30;99.90;;;;;;5073821;28;20039;-75
2021/11/15 02:08:52;;;;;;;14.90;10.23;;;12.40;99.90;;;;;;5073705;28;20040;-73
2021/11/15 02:11:18;;;;;;;18.13;11.90;;;12.40;99.90;;;;;;5073427;28;20025;-73
2021/11/15 02:13:44;;;;;;;20.17;12.13;;;12.50;99.90;;;;;;5074110;28;20609;-72
2021/11/15 02:16:10;;;;;;;21.10;12.70;;;12.50;99.90;;;;;;5072344;28;20396;-74
2021/11/15 02:18:36;;;;;;;23.75;13.68;;;12.60;99.90;;;;;;5073826;28;20024;-73
2021/11/15 02:21:07;;;;;;;22.10;12.13;;;12.60;99.90;;;;;;5073121;28;20020;-73
2021/11/15 02:23:36;;;;;;;22.90;14.50;;;12.70;99.90;;;;;;5072028;28;20028;-74
2021/11/15 02:26:04;;;;;;;18.65;12.65;;;12.70;99.90;;;;;;5073589;28;20561;-74
2021/11/15 02:28:37;;;;;;;20.95;13.18;;;12.70;99.90;;;;;;5073498;28;20342;-72
2021/11/15 02:31:04;;;;;;;22.95;15.23;;;12.70;99.90;;;;;;5073350;28;20531;-74
2021/11/15 02:33:31;;;;;;;22.95;13.38;;;12.70;99.90;;;;;;5073812;28;20029;-73
2021/11/15 02:35:58;;;;;;;22.23;13.10;;;12.70;99.90;;;;;;5078456;28;20087;-75
2021/11/15 02:38:24;;;;;;;20.27;12.50;;;12.70;99.90;;;;;;5073793;28;20028;-74
2021/11/15 02:40:50;;;;;;;20.58;12.70;;;12.70;99.90;;;;;;5073370;28;20472;-74
2021/11/15 02:43:16;;;;;;;19.10;13.20;;;12.70;99.90;;;;;;5086984;28;20042;-73
2021/11/15 02:45:42;;;;;;;27.02;14.60;;;12.70;99.90;;;;;;5093742;28;20030;-73
2021/11/15 02:48:08;;;;;;;20.70;13.25;;;12.70;99.90;;;;;;5093761;28;20021;-73
2021/11/15 02:50:35;;;;;;;22.75;14.07;;;12.70;99.90;;;;;;5092551;28;20043;-74
2021/11/15 02:53:05;;;;;;;22.67;13.70;;;12.70;99.90;;;;;;5076305;28;20045;-73
2021/11/15 02:55:31;;;;;;;21.90;13.50;;;12.70;99.90;;;;;;5052985;28;20431;-73
2021/11/15 02:57:58;;;;;;;19.65;12.85;;;12.70;99.90;;;;;;5080080;28;20024;-73
2021/11/15 03:00:41;;;;;;;24.25;12.63;;;12.60;99.90;;;;;;5093463;28;20032;-73
2021/11/15 03:03:08;;;;;;;28.65;13.45;;;12.60;99.90;;;;;;5093693;28;20043;-74
2021/11/15 03:05:39;;;;;;;19.98;12.88;;;12.60;99.90;;;;;;5078587;28;20081;-72
2021/11/15 03:08:06;;;;;;;19.20;12.95;;;12.60;99.90;;;;;;5073276;28;20028;-73
2021/11/15 03:10:32;;;;;;;19.83;13.07;;;12.60;99.90;;;;;;5073362;28;20395;-73
2021/11/15 03:12:58;;;;;;;20.38;12.88;;;12.60;99.90;;;;;;5081294;28;20024;-73
2021/11/15 03:15:40;;;;;;;21.35;13.88;;;12.50;99.90;;;;;;5089214;28;20032;-74
2021/11/15 03:18:09;;;;;;;21.00;13.25;;;12.40;99.90;;;;;;5080685;28;20107;-73
2021/11/15 03:20:40;;;;;;;25.35;13.90;;;12.40;99.90;;;;;;5074101;28;20033;-73
2021/11/15 03:23:11;;;;;;;20.88;12.98;;;12.40;99.90;;;;;;5085733;28;20032;-74
2021/11/15 03:25:38;;;;;;;20.30;12.57;;;12.40;99.90;;;;;;5093204;28;20081;-74
2021/11/15 03:28:07;;;;;;;20.50;13.23;;;12.40;99.90;;;;;;5091139;28;20420;-75
2021/11/15 03:30:33;;;;;;;19.75;12.63;;;12.40;99.90;;;;;;5079975;28;20036;-74
2021/11/15 03:32:59;;;;;;;18.60;12.25;;;12.30;99.90;;;;;;5075287;28;20020;-73
2021/11/15 03:35:25;;;;;;;20.15;12.32;;;12.30;99.90;;;;;;5088538;28;20048;-73
2021/11/15 03:37:52;;;;;;;20.55;12.10;;;12.20;99.90;;;;;;5082202;28;20100;-73
2021/11/15 03:40:23;;;;;;;17.92;11.48;;;12.30;99.90;;;;;;5078031;28;20498;-73
2021/11/15 03:42:52;;;;;;;20.08;12.05;;;12.20;99.90;;;;;;5092790;28;20026;-73
2021/11/15 03:45:18;;;;;;;20.27;11.88;;;12.20;99.90;;;;;;5092507;28;20028;-72
2021/11/15 03:47:46;;;;;;;18.08;11.77;;;12.20;99.90;;;;;;5079362;28;20024;-74
2021/11/15 03:50:13;;;;;;;15.77;11.35;;;12.30;99.90;;;;;;5083969;28;20112;-73
2021/11/15 03:52:41;;;;;;;18.92;12.77;;;12.20;99.90;;;;;;5072727;28;20031;-73
2021/11/15 03:55:10;;;;;;;19.13;11.73;;;12.20;99.90;;;;;;5077080;28;20044;-74
2021/11/15 03:57:36;;;;;;;19.95;12.93;;;12.30;99.90;;;;;;5054526;28;20016;-74
2021/11/15 04:00:06;;;;;;;19.73;13.10;;;12.20;99.90;;;;;;5054696;28;20425;-74
2021/11/15 04:02:33;;;;;;;22.02;13.35;;;12.20;99.90;;;;;;5082480;28;20024;-73
2021/11/15 04:05:03;;;;;;;19.45;11.93;;;12.20;99.90;;;;;;5072077;28;20031;-75
2021/11/15 04:07:43;;;;;;;19.83;12.88;;;12.20;99.90;;;;;;5074741;28;20027;-73
2021/11/15 04:10:19;;;;;;;22.77;13.02;;;12.20;99.90;;;;;;5076603;28;20020;-74
2021/11/15 04:12:46;;;;;;;19.90;12.70;;;12.20;99.90;;;;;;5076784;28;20027;-73
2021/11/15 04:15:12;;;;;;;20.90;12.52;;;12.20;99.90;;;;;;5093591;28;20380;-74
2021/11/15 04:17:39;;;;;;;22.10;13.02;;;12.30;99.90;;;;;;5078660;28;20111;-73
2021/11/15 04:20:08;;;;;;;19.48;11.57;;;12.20;99.90;;;;;;5081469;28;20042;-73
2021/11/15 04:22:35;;;;;;;24.35;12.77;;;12.30;99.90;;;;;;5081512;28;20107;-73
2021/11/15 04:25:07;;;;;;;25.05;12.90;;;12.20;99.90;;;;;;5096587;28;20073;-74
2021/11/15 04:27:33;;;;;;;;;;;12.20;99.90;;;;;;5078795;28;20077;-73
2021/11/15 04:29:59;;;;;;;23.52;13.02;;;12.20;99.90;;;;;;5096220;28;19904;-74
2021/11/15 04:32:25;;;;;;;22.95;12.10;;;12.20;99.90;;;;;;5096567;28;20119;-73
2021/11/15 04:34:51;;;;;;;19.73;12.52;;;12.20;99.90;;;;;;5092698;28;20059;-74
2021/11/15 04:37:17;;;;;;;20.60;13.35;;;12.20;99.90;;;;;;5081003;28;20110;-73
2021/11/15 04:39:42;;;;;;;25.13;13.30;;;12.30;99.90;;;;;;5075994;28;20017;-72
2021/11/15 04:42:08;;;;;;;25.40;14.10;;;12.30;99.90;;;;;;5078265;28;20063;-73
2021/11/15 04:44:34;;;;;;;26.10;14.35;;;12.30;99.90;;;;;;5087313;28;20021;-74
2021/11/15 04:46:59;;;;;;;22.02;13.38;;;12.20;99.90;;;;;;5075691;28;20071;-75
2021/11/15 04:49:25;;;;;;;25.92;13.70;;;12.20;99.90;;;;;;5090783;28;20024;-74
2021/11/15 04:51:51;;;;;;;24.55;13.52;;;12.20;99.90;;;;;;5079877;28;20388;-73
2021/11/15 04:54:17;;;;;;;23.15;13.88;;;12.20;99.90;;;;;;5081792;28;20479;-72
2021/11/15 04:56:43;;;;;;;26.45;14.85;;;12.20;99.90;;;;;;5075287;28;20103;-75
2021/11/15 04:59:10;;;;;;;24.13;13.13;;;12.20;99.90;;;;;;5092988;28;20120;-75
2021/11/15 05:01:36;;;;;;;26.63;14.18;;;12.20;99.90;;;;;;5091994;28;20028;-74
2021/11/15 05:04:02;;;;;;;21.80;14.43;;;12.10;99.90;;;;;;5075452;28;20044;-72
2021/11/15 05:06:28;;;;;;;29.02;14.93;;;12.10;99.90;;;;;;5079319;28;20115;-74
2021/11/15 05:08:54;;;;;;;22.25;13.65;;;12.10;99.90;;;;;;5095721;28;20048;-73
2021/11/15 05:11:20;;;;;;;27.38;14.38;;;12.10;99.90;;;;;;5095600;28;20498;-74
2021/11/15 05:13:45;;;;;;;28.60;15.32;;;12.10;99.90;;;;;;5093653;28;20078;-73
2021/11/15 05:16:12;;;;;;;26.27;13.40;;;12.10;99.90;;;;;;5095519;28;20051;-74
2021/11/15 05:18:37;;;;;;;21.90;13.00;;;12.00;99.90;;;;;;5086387;28;20099;-74
2021/11/15 05:21:03;;;;;;;24.77;14.75;;;11.90;99.90;;;;;;5074282;28;20151;-73
2021/11/15 05:23:29;;;;;;;25.35;13.60;;;11.90;99.90;;;;;;5079290;28;20499;-74
2021/11/15 05:25:55;;;;;;;24.48;14.80;;;12.00;99.90;;;;;;5074955;28;20031;-73
2021/11/15 05:28:21;;;;;;;23.15;13.98;;;11.90;99.90;;;;;;5075037;28;20528;-74
2021/11/15 05:30:47;;;;;;;23.10;14.15;;;11.90;99.90;;;;;;5064499;28;20059;-74
2021/11/15 05:33:13;;;;;;;26.83;14.20;;;12.00;99.90;;;;;;5055554;28;20377;-74
2021/11/15 05:35:38;;;;;;;24.05;13.85;;;12.00;99.90;;;;;;5084953;28;20044;-73
2021/11/15 05:38:05;;;;;;;26.35;14.38;;;11.90;99.90;;;;;;5078158;28;20387;-74
2021/11/15 05:40:31;;;;;;;25.88;14.23;;;11.90;99.90;;;;;;5094642;28;20024;-74
2021/11/15 05:42:57;;;;;;;22.40;13.57;;;11.90;99.90;;;;;;5094980;28;20026;-74
2021/11/15 05:45:24;;;;;;;37.47;14.27;;;11.90;99.90;;;;;;5086763;28;20020;-75
2021/11/15 05:47:51;;;;;;;31.67;14.48;;;11.90;99.90;;;;;;5074696;28;20060;-73
2021/11/15 05:50:18;;;;;;;21.83;14.85;;;11.90;99.90;;;;;;5074251;28;20032;-75
2021/11/15 05:52:44;;;;;;;25.10;14.07;;;11.90;99.90;;;;;;5056334;28;20021;-75
2021/11/15 05:55:13;;;;;;;23.10;13.43;;;11.90;99.90;;;;;;5073305;28;20128;-74
2021/11/15 05:57:39;;;;;;;25.05;13.48;;;11.90;99.90;;;;;;5074123;28;20407;-73
2021/11/15 06:00:08;;;;;;;24.92;13.75;;;11.90;99.90;;;;;;5094398;28;20023;-74
2021/11/15 06:02:34;;;;;;;28.60;13.77;;;11.90;99.90;;;;;;5081715;28;20099;-75
2021/11/15 06:04:59;;;;;;;26.13;13.82;;;11.90;99.90;;;;;;5074134;28;20429;-74
2021/11/15 06:07:25;;;;;;;23.13;14.25;;;11.80;99.90;;;;;;5074216;28;20032;-74
2021/11/15 06:09:51;;;;;;;31.88;15.00;;;11.80;99.90;;;;;;5072863;28;20031;-75
2021/11/15 06:12:17;;;;;;;28.27;15.15;;;11.90;99.90;;;;;;5073705;28;20040;-75
2021/11/15 06:14:42;;;;;;;26.92;15.05;;;11.90;99.90;;;;;;5065775;28;20033;-76
2021/11/15 06:17:08;;;;;;;32.33;16.33;;;11.90;99.90;;;;;;5078672;28;20036;-74
2021/11/15 06:19:34;;;;;;;29.45;15.70;;;11.90;99.90;;;;;;5074478;28;20075;-75
2021/11/15 06:22:01;;;;;;;28.52;14.02;;;11.90;99.90;;;;;;5078203;28;20469;-74
2021/11/15 06:24:27;;;;;;;32.22;16.02;;;11.90;99.90;;;;;;5074174;28;20021;-75
2021/11/15 06:26:52;;;;;;;31.80;16.08;;;11.90;99.90;;;;;;5073823;28;20488;-77
2021/11/15 06:29:19;;;;;;;32.92;15.32;;;11.90;99.90;;;;;;5088380;28;20032;-75
2021/11/15 06:31:45;;;;;;;29.52;15.45;;;12.00;99.90;;;;;;5076069;28;20023;-75
2021/11/15 06:34:10;;;;;;;30.23;16.40;;;11.90;99.90;;;;;;5093670;28;20024;-73
2021/11/15 06:36:36;;;;;;;37.35;16.80;;;12.00;99.90;;;;;;5075151;28;20562;-74
2021/11/15 06:39:03;;;;;;;32.55;16.58;;;12.00;99.90;;;;;;5071461;28;20032;-75
2021/11/15 06:41:29;;;;;;;28.85;15.90;;;12.00;99.90;;;;;;5071802;28;20047;-73
2021/11/15 06:43:56;;;;;;;28.45;15.95;;;12.00;99.90;;;;;;5071598;28;20532;-74
2021/11/15 06:46:22;;;;;;;33.15;16.23;;;12.00;99.90;;;;;;5073268;28;20040;-73
2021/11/15 06:48:48;;;;;;;35.75;16.40;;;12.00;99.90;;;;;;5073506;28;20024;-75
2021/11/15 06:51:14;;;;;;;40.05;15.85;;;12.00;99.90;;;;;;5073464;28;20032;-71
2021/11/15 06:53:42;;;;;;;30.67;15.80;;;12.00;99.90;;;;;;5073372;28;20024;-74
2021/11/15 06:56:08;;;;;;;40.85;15.77;;;12.00;99.90;;;;;;5072194;28;20021;-73
2021/11/15 06:58:35;;;;;;;31.52;16.27;;;12.00;99.90;;;;;;5072071;28;20016;-75
2021/11/15 07:01:02;;;;;;;33.40;17.70;;;12.00;99.90;;;;;;5072104;28;20023;-74
2021/11/15 07:03:28;;;;;;;36.28;17.38;;;12.00;99.90;;;;;;5073508;28;20115;-75
2021/11/15 07:05:53;;;;;;;34.15;17.27;;;12.10;99.90;;;;;;5073287;28;20108;-74
2021/11/15 07:08:19;;;;;;;34.13;18.25;;;12.00;99.90;;;;;;5073181;28;20086;-74
2021/11/15 07:10:45;;;;;;;38.13;18.77;;;12.00;99.90;;;;;;5072648;28;20021;-76
2021/11/15 07:13:15;;;;;;;51.78;19.20;;;12.00;99.90;;;;;;5072309;28;20100;-75
2021/11/15 07:15:41;;;;;;;35.78;17.95;;;12.10;99.90;;;;;;5072033;28;20040;-73
2021/11/15 07:18:09;;;;;;;43.22;19.33;;;12.10;99.90;;;;;;5072643;28;20048;-77
2021/11/15 07:20:35;;;;;;;32.38;19.35;;;12.00;99.90;;;;;;5073014;28;20020;-74
2021/11/15 07:23:01;;;;;;;39.78;20.38;;;12.00;99.90;;;;;;5072581;28;20020;-74
2021/11/15 07:25:27;;;;;;;47.97;20.92;;;12.00;99.90;;;;;;5071904;28;20495;-74
2021/11/15 07:27:55;;;;;;;44.88;20.13;;;12.00;99.90;;;;;;5072195;28;20033;-75
2021/11/15 07:30:21;;;;;;;42.60;20.73;;;12.10;99.90;;;;;;5069612;28;20055;-73
2021/11/15 07:32:48;;;;;;;39.80;20.02;;;12.20;99.90;;;;;;5071962;28;20572;-74
2021/11/15 07:35:14;;;;;;;38.33;19.60;;;12.20;99.90;;;;;;5070281;28;20051;-73
2021/11/15 07:37:39;;;;;;;41.47;21.85;;;12.20;99.90;;;;;;5072004;28;20111;-73
2021/11/15 07:40:08;;;;;;;44.92;22.63;;;12.20;99.90;;;;;;5069771;28;20552;-74
2021/11/15 07:42:34;;;;;;;42.08;21.35;;;12.10;99.90;;;;;;5071427;28;20028;-73
2021/11/15 07:45:01;;;;;;;44.50;22.13;;;12.10;99.90;;;;;;5071785;28;20523;-75
2021/11/15 07:47:27;;;;;;;49.03;24.77;;;12.10;99.90;;;;;;5072076;28;20033;-72
2021/11/15 07:49:52;;;;;;;44.50;22.48;;;12.10;99.90;;;;;;5072035;28;20025;-73
2021/11/15 07:52:19;;;;;;;51.35;24.63;;;12.20;99.90;;;;;;5071995;28;20082;-73
2021/11/15 07:54:46;;;;;;;51.03;22.73;;;12.10;99.90;;;;;;5071281;28;20473;-73
2021/11/15 07:57:12;;;;;;;49.83;25.15;;;12.10;99.90;;;;;;5071849;28;20089;-74
2021/11/15 07:59:38;;;;;;;48.40;23.63;;;12.40;99.90;;;;;;5071879;28;20104;-73
2021/11/15 08:02:05;;;;;;;49.58;25.02;;;12.80;99.90;;;;;;5071538;28;20357;-73
2021/11/15 08:04:32;;;;;;;46.70;23.40;;;12.80;99.90;;;;;;5070519;28;20028;-73
2021/11/15 08:06:58;;;;;;;47.80;24.02;;;12.70;99.90;;;;;;5071824;28;20074;-75
2021/11/15 08:09:25;;;;;;;54.70;24.70;;;12.60;99.90;;;;;;5071710;28;20141;-74
2021/11/15 08:11:55;;;;;;;46.88;24.80;;;12.60;99.90;;;;;;5071108;28;20029;-74
2021/11/15 08:14:21;;;;;;;51.70;26.92;;;12.60;99.90;;;;;;5072513;28;20036;-74
2021/11/15 08:16:47;;;;;;;54.15;26.27;;;12.70;99.90;;;;;;5071161;28;20037;-74
2021/11/15 08:19:14;;;;;;;48.90;25.42;;;12.80;99.90;;;;;;5069251;28;20479;-73
2021/11/15 08:21:40;;;;;;;47.45;26.60;;;12.90;99.90;;;;;;5070667;28;20013;-73
2021/11/15 08:24:28;;;;;;;45.88;24.85;;;12.80;99.90;;;;;;5069893;28;20038;-74
2021/11/15 08:27:00;;;;;;;54.78;26.90;;;12.90;99.90;;;;;;5069944;28;20098;-74
2021/11/15 08:29:28;;;;;;;47.35;26.52;;;12.90;99.90;;;;;;5070750;28;20017;-73
2021/11/15 08:32:00;;;;;;;53.33;27.67;;;12.90;99.90;;;;;;5071053;28;20464;-73
2021/11/15 08:34:26;;;;;;;47.95;25.92;;;12.90;99.90;;;;;;5071311;28;20031;-72
2021/11/15 08:36:52;;;;;;;56.05;26.70;;;13.00;99.90;;;;;;5069940;28;20508;-73
2021/11/15 08:39:24;;;;;;;48.22;27.65;;;13.00;99.90;;;;;;5070317;28;20027;-76
2021/11/15 08:41:56;;;;;;;44.67;25.63;;;13.10;99.90;;;;;;5070178;28;20020;-73
2021/11/15 08:44:23;;;;;;;53.35;26.95;;;13.10;99.90;;;;;;5068794;28;20048;-73
2021/11/15 08:46:52;;;;;;;47.88;25.27;;;13.10;99.90;;;;;;5069510;28;20052;-73
2021/11/15 08:49:23;;;;;;;53.40;28.45;;;13.10;99.90;;;;;;5069784;28;20377;-73
2021/11/15 08:51:49;;;;;;;55.92;29.63;;;13.10;99.90;;;;;;5070423;28;20036;-71
2021/11/15 08:54:17;;;;;;;48.90;27.77;;;13.10;99.90;;;;;;5073963;28;20021;-71
2021/11/15 08:56:55;;;;;;;46.58;27.00;;;13.20;99.90;;;;;;5061021;28;20083;-72
2021/11/15 08:59:22;;;;;;;50.25;28.20;;;13.10;99.90;;;;;;5073205;28;20484;-73
2021/11/15 09:01:48;;;;;;;47.47;26.85;;;13.00;99.90;;;;;;5074762;28;20060;-72
2021/11/15 09:04:14;;;;;;;52.20;27.23;;;13.10;99.90;;;;;;5074713;28;20020;-72
2021/11/15 09:06:40;;;;;;;46.35;27.63;;;13.10;99.90;;;;;;5074415;28;20059;-72
2021/11/15 09:09:10;;;;;;;49.13;27.30;;;13.10;99.90;;;;;;5074718;28;20048;-72
2021/11/15 09:11:36;;;;;;;46.08;26.98;;;13.10;99.90;;;;;;5074417;28;20067;-75
2021/11/15 09:14:02;;;;;;;48.08;27.35;;;13.10;99.90;;;;;;5074502;28;20024;-72
2021/11/15 09:16:28;;;;;;;47.28;26.70;;;13.10;99.90;;;;;;5073933;28;20048;-71
2021/11/15 09:18:54;;;;;;;49.42;27.05;;;13.20;99.90;;;;;;5072400;28;20025;-72
2021/11/15 09:21:20;;;;;;;47.35;26.92;;;13.20;99.90;;;;;;5073888;28;20043;-75
2021/11/15 09:23:47;;;;;;;46.10;25.98;;;13.20;99.90;;;;;;5074557;28;20362;-72
2021/11/15 09:26:15;;;;;;;52.15;27.15;;;13.30;99.90;;;;;;5073325;28;20107;-75
2021/11/15 09:28:42;;;;;;;47.70;26.05;;;13.30;99.90;;;;;;5074280;28;20492;-72
2021/11/15 09:31:08;;;;;;;45.63;25.42;;;13.30;99.90;;;;;;5074805;28;20614;-72
2021/11/15 09:33:35;;;;;;;47.10;26.10;;;13.30;99.90;;;;;;5074836;28;20024;-75
2021/11/15 09:36:01;;;;;;;49.33;26.80;;;13.30;99.90;;;;;;5074066;28;20400;-72
2021/11/15 09:38:28;;;;;;;50.83;26.05;;;13.20;99.90;;;;;;5073741;28;20025;-74
2021/11/15 09:41:02;;;;;;;48.90;26.17;;;13.30;99.90;;;;;;5071604;28;20077;-75
2021/11/15 09:43:34;;;;;;;46.65;26.10;;;13.20;99.90;;;;;;5071197;28;20017;-71
2021/11/15 09:46:02;;;;;;;;;;;13.20;99.90;;;;;;5074223;28;20064;-72
2021/11/15 09:48:32;;;;;;;52.22;27.90;;;13.10;99.90;;;;;;5070226;28;19908;-73
2021/11/15 09:50:58;;;;;;;52.00;28.05;;;13.10;99.90;;;;;;5071190;28;20024;-71
2021/11/15 09:53:23;;;;;;;48.63;28.55;;;13.10;99.90;;;;;;5073602;28;20476;-73
2021/11/15 09:55:50;;;;;;;52.97;26.80;;;13.00;99.90;;;;;;5072993;28;20036;-74
2021/11/15 09:58:15;;;;;;;54.25;27.65;;;13.10;99.90;;;;;;5073674;28;20028;-73
2021/11/15 10:00:44;;;;;;;46.65;26.95;;;13.10;99.90;;;;;;5074066;28;20534;-72
2021/11/15 10:03:10;;;;;;;42.88;25.88;;;13.10;99.90;;;;;;5073796;28;20044;-72
2021/11/15 10:05:36;;;;;;;44.85;25.05;;;13.30;99.90;;;;;;5072798;28;20064;-77
2021/11/15 10:08:09;;;;;;;62.97;28.08;;;13.30;99.90;;;;;;5073646;28;20090;-73
2021/11/15 10:10:58;;;;;;;50.80;26.17;;;13.50;99.90;;;;;;5073811;28;20077;-77
2021/11/15 10:13:33;;;;;;;52.30;26.35;;;13.60;99.90;;;;;;5072927;28;20040;-73
2021/11/15 10:16:14;;;;;;;45.35;27.75;;;13.70;99.90;;;;;;5073281;28;20366;-71
2021/11/15 10:18:39;;;;;;;44.50;26.13;;;13.80;99.90;;;;;;5056115;28;20027;-72
2021/11/15 10:21:25;;;;;;;52.58;28.02;;;13.80;99.90;;;;;;5067137;28;20029;-71
2021/11/15 10:24:08;;;;;;;44.15;26.48;;;13.80;99.90;;;;;;5072846;28;20473;-72
2021/11/15 10:26:41;;;;;;;47.33;26.08;;;13.90;99.90;;;;;;5069998;28;20426;-71
2021/11/15 10:29:16;;;;;;;50.05;27.48;;;13.80;99.90;;;;;;5073049;28;20024;-71
2021/11/15 10:31:52;;;;;;;45.13;26.20;;;13.80;99.90;;;;;;5071429;28;20384;-76
2021/11/15 10:34:31;;;;;;;51.03;28.00;;;14.00;99.90;;;;;;5067547;28;20024;-75
2021/11/15 10:37:05;;;;;;;46.90;25.13;;;14.50;99.90;;;;;;5069087;28;20553;-74
2021/11/15 10:39:44;;;;;;;45.53;25.42;;;14.70;99.90;;;;;;5069497;28;20025;-76
2021/11/15 10:42:13;;;;;;;43.05;23.95;;;14.70;99.90;;;;;;5071831;28;20032;-72
2021/11/15 10:44:58;;;;;;;49.47;26.70;;;14.50;99.90;;;;;;5071673;28;20099;-73
2021/11/15 10:47:44;;;;;;;45.75;26.35;;;14.40;99.90;;;;;;5071814;28;20036;-75
2021/11/15 10:50:27;;;;;;;40.03;24.95;;;14.30;99.90;;;;;;5068037;28;20409;-75
2021/11/15 10:53:05;;;;;;;44.30;25.73;;;14.20;99.90;;;;;;5069556;28;20063;-74
2021/11/15 10:55:40;;;;;;;42.65;24.65;;;14.20;99.90;;;;;;5064386;28;20028;-73
2021/11/15 10:58:19;;;;;;;45.55;24.95;;;14.30;99.90;;;;;;5067012;28;20077;-73
2021/11/15 11:00:52;;;;;;;37.33;24.00;;;14.50;99.90;;;;;;5052517;28;20035;-73
2021/11/15 11:03:21;;;;;;;39.28;23.90;;;14.70;99.90;;;;;;5066075;28;20547;-72
2021/11/15 11:05:53;;;;;;;41.67;25.05;;;14.80;99.90;;;;;;5072140;28;20463;-72
2021/11/15 11:08:27;;;;;;;39.08;23.38;;;14.90;99.90;;;;;;5071098;28;20024;-71
2021/11/15 11:11:06;;;;;;;38.63;23.65;;;14.70;99.90;;;;;;5071471;28;20089;-75
2021/11/15 11:13:53;;;;;;;41.97;24.77;;;14.50;99.90;;;;;;5072060;28;20074;-71
2021/11/15 11:16:36;;;;;;;42.70;24.65;;;14.50;99.90;;;;;;5070845;28;20082;-77
2021/11/15 11:19:15;;;;;;;43.88;25.50;;;14.50;99.90;;;;;;5070996;28;20414;-77
2021/11/15 11:26:41;;;;;;;43.23;25.53;;;14.60;99.90;;;;;;5070177;28;20166;-75
2021/11/15 11:29:20;;;;;;;43.75;24.35;;;14.50;99.90;;;;;;5070538;28;20013;-77
2021/11/15 11:31:53;;;;;;;49.40;26.27;;;14.40;99.90;;;;;;5070601;28;20035;-78
2021/11/15 11:34:21;;;;;;;40.25;23.50;;;14.30;99.90;;;;;;5071172;28;20028;-77
2021/11/15 11:36:47;;;;;;;38.97;23.77;;;14.30;99.90;;;;;;5071631;28;20049;-73
2021/11/15 11:39:14;;;;;;;38.70;23.05;;;14.40;99.90;;;;;;5070337;28;20350;-72
2021/11/15 11:41:42;;;;;;;36.28;23.73;;;14.50;99.90;;;;;;5070603;28;20028;-74
2021/11/15 11:44:11;;;;;;;35.60;21.95;;;14.50;99.90;;;;;;5071680;28;20036;-73
2021/11/15 11:46:41;;;;;;;41.10;23.73;;;14.60;99.90;;;;;;5069518;28;20381;-72
2021/11/15 11:49:11;;;;;;;37.08;23.23;;;14.50;99.90;;;;;;5071355;28;20017;-72
2021/11/15 11:51:39;;;;;;;41.92;22.65;;;14.40;99.90;;;;;;5071017;28;20024;-71
2021/11/15 11:54:09;;;;;;;33.40;21.27;;;14.50;99.90;;;;;;5069834;28;20028;-74
2021/11/15 11:56:36;;;;;;;36.90;20.65;;;14.50;99.90;;;;;;5069485;28;20130;-72
2021/11/15 11:59:10;;;;;;;34.20;20.67;;;14.50;99.90;;;;;;5071420;28;20350;-74
2021/11/15 12:01:36;;;;;;;35.47;21.13;;;14.60;99.90;;;;;;5071337;28;20024;-73
2021/11/15 12:04:19;;;;;;;39.75;21.90;;;14.50;99.90;;;;;;5070105;28;20029;-75
2021/11/15 12:06:49;;;;;;;31.17;19.20;;;14.40;99.90;;;;;;5071053;28;20044;-72
2021/11/15 12:09:17;;;;;;;44.55;20.90;;;14.40;99.90;;;;;;5071564;28;20028;-75
2021/11/15 12:11:59;;;;;;;36.00;21.58;;;14.30;99.90;;;;;;5070795;28;20024;-72
2021/11/15 12:14:37;;;;;;;35.47;20.65;;;14.30;99.90;;;;;;5067219;28;20028;-71
2021/11/15 12:17:02;;;;;;;34.58;21.95;;;14.20;99.90;;;;;;5070477;28;20025;-71
2021/11/15 12:19:48;;;;;;;34.25;20.27;;;14.20;99.90;;;;;;5069069;28;20024;-77
2021/11/15 12:22:16;;;;;;;38.50;20.27;;;14.20;99.90;;;;;;5071169;28;20028;-74
2021/11/15 12:25:11;;;;;;;33.28;20.27;;;14.30;99.90;;;;;;5071323;28;20024;-72
2021/11/15 12:27:38;;;;;;;44.55;21.20;;;14.30;99.90;;;;;;5067295;28;20052;-73
2021/11/15 12:30:16;;;;;;;34.28;19.27;;;14.40;99.90;;;;;;5074333;28;20055;-75
2021/11/15 12:33:01;;;;;;;32.47;20.45;;;14.30;99.90;;;;;;5073011;28;20017;-72
2021/11/15 12:35:27;;;;;;;34.22;20.95;;;14.30;99.90;;;;;;5073684;28;20048;-73
2021/11/15 12:37:53;;;;;;;33.70;18.60;;;14.20;99.90;;;;;;5073623;28;20031;-72
2021/11/15 12:40:37;;;;;;;38.40;21.52;;;14.30;99.90;;;;;;5071638;28;20489;-75